sensor_id;sensor_type;location;lat;lon;timestamp;P1;durP1;ratioP1;P2;durP2;ratioP2
48951;SDS011;34758;42.148;24.744;2024-03-08T00:00:44;25.95;;;18.30;;
48951;SDS011;34758;42.148;24.744;2024-03-08T00:03:12;27.10;;;18.02;;
48951;SDS011;34758;42.148;24.744;2024-03-08T00:05:42;25.90;;;18.55;;
48951;SDS011;34758;42.148;24.744;2024-03-08T00:08:09;27.85;;;18.73;;
48951;SDS011;34758;42.148;24.744;2024-03-08T00:10:37;26.70;;;18.00;;
48951;SDS011;34758;42.148;24.744;2024-03-08T00:13:05;27.88;;;19.58;;
48951;SDS011;34758;42.148;24.744;2024-03-08T00:15:32;31.02;;;20.20;;
48951;SDS011;34758;42.148;24.744;2024-03-08T00:18:00;29.42;;;18.30;;
48951;SDS011;34758;42.148;24.744;2024-03-08T00:20:27;24.75;;;17.42;;
48951;SDS011;34758;42.148;24.744;2024-03-08T00:22:54;25.95;;;18.05;;
48951;SDS011;34758;42.148;24.744;2024-03-08T00:25:23;26.55;;;18.30;;
48951;SDS011;34758;42.148;24.744;2024-03-08T00:27:50;29.38;;;17.38;;
48951;SDS011;34758;42.148;24.744;2024-03-08T00:30:23;24.20;;;17.75;;
48951;SDS011;34758;42.148;24.744;2024-03-08T00:32:51;25.33;;;17.73;;
48951;SDS011;34758;42.148;24.744;2024-03-08T00:35:18;25.88;;;18.88;;
48951;SDS011;34758;42.148;24.744;2024-03-08T00:37:45;26.38;;;18.70;;
48951;SDS011;34758;42.148;24.744;2024-03-08T00:40:12;25.60;;;17.70;;
48951;SDS011;34758;42.148;24.744;2024-03-08T00:42:40;25.00;;;17.65;;
48951;SDS011;34758;42.148;24.744;2024-03-08T00:45:10;23.00;;;17.30;;
48951;SDS011;34758;42.148;24.744;2024-03-08T00:47:39;25.15;;;17.52;;
48951;SDS011;34758;42.148;24.744;2024-03-08T00:50:07;28.77;;;17.05;;
48951;SDS011;34758;42.148;24.744;2024-03-08T00:52:35;23.52;;;16.27;;
48951;SDS011;34758;42.148;24.744;2024-03-08T00:55:03;23.05;;;16.50;;
48951;SDS011;34758;42.148;24.744;2024-03-08T00:57:31;24.75;;;17.95;;
48951;SDS011;34758;42.148;24.744;2024-03-08T00:59:58;27.13;;;17.95;;
48951;SDS011;34758;42.148;24.744;2024-03-08T01:02:25;25.77;;;17.80;;
48951;SDS011;34758;42.148;24.744;2024-03-08T01:04:56;26.50;;;16.65;;
48951;SDS011;34758;42.148;24.744;2024-03-08T01:07:23;23.15;;;15.80;;
48951;SDS011;34758;42.148;24.744;2024-03-08T01:09:50;23.15;;;16.77;;
48951;SDS011;34758;42.148;24.744;2024-03-08T01:12:19;26.88;;;16.88;;
48951;SDS011;34758;42.148;24.744;2024-03-08T01:14:47;24.25;;;17.98;;
48951;SDS011;34758;42.148;24.744;2024-03-08T01:17:16;27.25;;;17.73;;
48951;SDS011;34758;42.148;24.744;2024-03-08T01:19:44;24.17;;;17.48;;
48951;SDS011;34758;42.148;24.744;2024-03-08T01:22:14;24.95;;;16.67;;
48951;SDS011;34758;42.148;24.744;2024-03-08T01:24:42;21.35;;;16.00;;
48951;SDS011;34758;42.148;24.744;2024-03-08T01:27:09;25.13;;;16.73;;
48951;SDS011;34758;42.148;24.744;2024-03-08T01:29:38;24.92;;;16.88;;
48951;SDS011;34758;42.148;24.744;2024-03-08T01:32:05;20.35;;;15.13;;
48951;SDS011;34758;42.148;24.744;2024-03-08T01:34:33;25.67;;;16.88;;
48951;SDS011;34758;42.148;24.744;2024-03-08T01:37:06;24.13;;;16.33;;
48951;SDS011;34758;42.148;24.744;2024-03-08T01:39:35;23.30;;;16.15;;
48951;SDS011;34758;42.148;24.744;2024-03-08T01:42:04;22.20;;;16.47;;
48951;SDS011;34758;42.148;24.744;2024-03-08T01:44:32;25.15;;;16.85;;
48951;SDS011;34758;42.148;24.744;2024-03-08T01:47:01;23.35;;;16.55;;
48951;SDS011;34758;42.148;24.744;2024-03-08T01:49:30;23.40;;;16.60;;
48951;SDS011;34758;42.148;24.744;2024-03-08T01:51:59;23.20;;;16.55;;
48951;SDS011;34758;42.148;24.744;2024-03-08T01:54:27;21.95;;;16.02;;
48951;SDS011;34758;42.148;24.744;2024-03-08T01:56:57;21.33;;;15.98;;
48951;SDS011;34758;42.148;24.744;2024-03-08T01:59:26;24.45;;;16.40;;
48951;SDS011;34758;42.148;24.744;2024-03-08T02:01:55;20.20;;;15.82;;
48951;SDS011;34758;42.148;24.744;2024-03-08T02:04:28;22.73;;;16.15;;
48951;SDS011;34758;42.148;24.744;2024-03-08T02:06:56;23.27;;;15.68;;
48951;SDS011;34758;42.148;24.744;2024-03-08T02:09:24;19.35;;;14.90;;
48951;SDS011;34758;42.148;24.744;2024-03-08T02:11:51;22.15;;;16.40;;
48951;SDS011;34758;42.148;24.744;2024-03-08T02:14:21;20.05;;;15.10;;
48951;SDS011;34758;42.148;24.744;2024-03-08T02:16:49;21.23;;;15.52;;
48951;SDS011;34758;42.148;24.744;2024-03-08T02:19:18;19.15;;;14.52;;
48951;SDS011;34758;42.148;24.744;2024-03-08T02:21:47;18.73;;;14.27;;
48951;SDS011;34758;42.148;24.744;2024-03-08T02:24:14;18.67;;;13.63;;
48951;SDS011;34758;42.148;24.744;2024-03-08T02:26:43;19.80;;;13.85;;
48951;SDS011;34758;42.148;24.744;2024-03-08T02:29:10;19.73;;;15.00;;
48951;SDS011;34758;42.148;24.744;2024-03-08T02:31:40;20.60;;;14.48;;
48951;SDS011;34758;42.148;24.744;2024-03-08T02:34:07;18.48;;;13.63;;
48951;SDS011;34758;42.148;24.744;2024-03-08T02:36:34;19.10;;;14.18;;
48951;SDS011;34758;42.148;24.744;2024-03-08T02:39:05;21.02;;;13.98;;
48951;SDS011;34758;42.148;24.744;2024-03-08T02:41:33;22.13;;;14.55;;
48951;SDS011;34758;42.148;24.744;2024-03-08T02:44:00;18.73;;;13.70;;
48951;SDS011;34758;42.148;24.744;2024-03-08T02:46:26;19.85;;;13.75;;
48951;SDS011;34758;42.148;24.744;2024-03-08T02:48:56;18.17;;;13.88;;
48951;SDS011;34758;42.148;24.744;2024-03-08T02:51:25;18.40;;;13.90;;
48951;SDS011;34758;42.148;24.744;2024-03-08T02:53:53;18.10;;;12.93;;
48951;SDS011;34758;42.148;24.744;2024-03-08T02:56:22;18.50;;;13.70;;
48951;SDS011;34758;42.148;24.744;2024-03-08T02:58:49;21.10;;;14.60;;
48951;SDS011;34758;42.148;24.744;2024-03-08T03:01:16;19.30;;;14.18;;
48951;SDS011;34758;42.148;24.744;2024-03-08T03:03:45;18.83;;;12.75;;
48951;SDS011;34758;42.148;24.744;2024-03-08T03:06:15;21.48;;;13.52;;
48951;SDS011;34758;42.148;24.744;2024-03-08T03:11:16;17.85;;;13.35;;
48951;SDS011;34758;42.148;24.744;2024-03-08T03:13:45;17.65;;;13.25;;
48951;SDS011;34758;42.148;24.744;2024-03-08T03:16:16;19.38;;;14.35;;
48951;SDS011;34758;42.148;24.744;2024-03-08T03:18:44;20.27;;;13.93;;
48951;SDS011;34758;42.148;24.744;2024-03-08T03:21:10;18.13;;;13.50;;
48951;SDS011;34758;42.148;24.744;2024-03-08T03:23:40;20.75;;;14.38;;
48951;SDS011;34758;42.148;24.744;2024-03-08T03:26:07;17.15;;;13.68;;
48951;SDS011;34758;42.148;24.744;2024-03-08T03:28:36;20.40;;;14.10;;
48951;SDS011;34758;42.148;24.744;2024-03-08T03:31:08;18.70;;;13.93;;
48951;SDS011;34758;42.148;24.744;2024-03-08T03:33:39;21.48;;;14.82;;
48951;SDS011;34758;42.148;24.744;2024-03-08T03:36:07;19.83;;;14.77;;
48951;SDS011;34758;42.148;24.744;2024-03-08T03:38:35;21.85;;;16.45;;
48951;SDS011;34758;42.148;24.744;2024-03-08T03:41:02;22.48;;;15.20;;
48951;SDS011;34758;42.148;24.744;2024-03-08T03:43:35;21.50;;;15.93;;
48951;SDS011;34758;42.148;24.744;2024-03-08T03:46:05;19.17;;;15.57;;
48951;SDS011;34758;42.148;24.744;2024-03-08T03:48:35;20.25;;;15.07;;
48951;SDS011;34758;42.148;24.744;2024-03-08T03:51:03;21.65;;;16.13;;
48951;SDS011;34758;42.148;24.744;2024-03-08T03:53:31;23.10;;;16.58;;
48951;SDS011;34758;42.148;24.744;2024-03-08T03:55:58;21.98;;;16.40;;
48951;SDS011;34758;42.148;24.744;2024-03-08T03:58:25;22.10;;;15.52;;
48951;SDS011;34758;42.148;24.744;2024-03-08T04:00:53;22.23;;;15.48;;
48951;SDS011;34758;42.148;24.744;2024-03-08T04:03:21;20.77;;;15.98;;
48951;SDS011;34758;42.148;24.744;2024-03-08T04:05:50;25.67;;;16.58;;
48951;SDS011;34758;42.148;24.744;2024-03-08T04:08:18;26.92;;;16.38;;
48951;SDS011;34758;42.148;24.744;2024-03-08T04:10:45;22.42;;;15.88;;
48951;SDS011;34758;42.148;24.744;2024-03-08T04:13:13;23.70;;;16.58;;
48951;SDS011;34758;42.148;24.744;2024-03-08T04:15:42;22.35;;;16.27;;
48951;SDS011;34758;42.148;24.744;2024-03-08T04:18:16;23.42;;;16.98;;
48951;SDS011;34758;42.148;24.744;2024-03-08T04:20:48;22.25;;;16.00;;
48951;SDS011;34758;42.148;24.744;2024-03-08T04:23:16;21.52;;;15.10;;
48951;SDS011;34758;42.148;24.744;2024-03-08T04:25:47;24.47;;;16.27;;
48951;SDS011;34758;42.148;24.744;2024-03-08T04:28:17;23.58;;;16.63;;
48951;SDS011;34758;42.148;24.744;2024-03-08T04:30:45;26.15;;;16.70;;
48951;SDS011;34758;42.148;24.744;2024-03-08T04:33:12;23.55;;;16.75;;
48951;SDS011;34758;42.148;24.744;2024-03-08T04:35:42;25.20;;;16.30;;
48951;SDS011;34758;42.148;24.744;2024-03-08T04:38:13;26.15;;;17.10;;
48951;SDS011;34758;42.148;24.744;2024-03-08T04:40:43;23.77;;;16.90;;
48951;SDS011;34758;42.148;24.744;2024-03-08T04:43:14;22.08;;;15.90;;
48951;SDS011;34758;42.148;24.744;2024-03-08T04:45:45;25.27;;;16.15;;
48951;SDS011;34758;42.148;24.744;2024-03-08T04:48:15;22.20;;;16.45;;
48951;SDS011;34758;42.148;24.744;2024-03-08T04:50:42;22.42;;;15.70;;
48951;SDS011;34758;42.148;24.744;2024-03-08T04:53:10;19.55;;;14.55;;
48951;SDS011;34758;42.148;24.744;2024-03-08T04:55:38;21.45;;;15.32;;
48951;SDS011;34758;42.148;24.744;2024-03-08T04:58:05;21.35;;;15.88;;
48951;SDS011;34758;42.148;24.744;2024-03-08T05:00:34;25.42;;;17.17;;
48951;SDS011;34758;42.148;24.744;2024-03-08T05:03:01;24.70;;;15.65;;
48951;SDS011;34758;42.148;24.744;2024-03-08T05:05:30;23.75;;;16.67;;
48951;SDS011;34758;42.148;24.744;2024-03-08T05:07:58;21.13;;;15.93;;
48951;SDS011;34758;42.148;24.744;2024-03-08T05:10:26;23.67;;;15.77;;
48951;SDS011;34758;42.148;24.744;2024-03-08T05:12:55;25.48;;;16.42;;
48951;SDS011;34758;42.148;24.744;2024-03-08T05:15:22;23.40;;;16.45;;
48951;SDS011;34758;42.148;24.744;2024-03-08T05:17:51;24.02;;;17.42;;
48951;SDS011;34758;42.148;24.744;2024-03-08T05:20:18;27.48;;;18.30;;
48951;SDS011;34758;42.148;24.744;2024-03-08T05:22:47;20.90;;;16.15;;
48951;SDS011;34758;42.148;24.744;2024-03-08T05:25:15;24.73;;;17.35;;
48951;SDS011;34758;42.148;24.744;2024-03-08T05:27:43;24.67;;;17.73;;
48951;SDS011;34758;42.148;24.744;2024-03-08T05:30:11;29.00;;;18.38;;
48951;SDS011;34758;42.148;24.744;2024-03-08T05:32:40;29.30;;;20.00;;
48951;SDS011;34758;42.148;24.744;2024-03-08T05:35:10;33.10;;;22.27;;
48951;SDS011;34758;42.148;24.744;2024-03-08T05:37:37;29.83;;;20.75;;
48951;SDS011;34758;42.148;24.744;2024-03-08T05:40:05;27.08;;;18.30;;
48951;SDS011;34758;42.148;24.744;2024-03-08T05:42:35;24.27;;;17.52;;
48951;SDS011;34758;42.148;24.744;2024-03-08T05:45:03;25.90;;;18.73;;
48951;SDS011;34758;42.148;24.744;2024-03-08T05:47:36;24.98;;;17.58;;
48951;SDS011;34758;42.148;24.744;2024-03-08T05:50:06;31.08;;;18.60;;
48951;SDS011;34758;42.148;24.744;2024-03-08T05:52:36;26.50;;;18.55;;
48951;SDS011;34758;42.148;24.744;2024-03-08T05:55:04;26.73;;;19.27;;
48951;SDS011;34758;42.148;24.744;2024-03-08T05:57:34;28.58;;;19.00;;
48951;SDS011;34758;42.148;24.744;2024-03-08T06:00:06;41.42;;;27.45;;
48951;SDS011;34758;42.148;24.744;2024-03-08T06:02:38;30.13;;;21.02;;
48951;SDS011;34758;42.148;24.744;2024-03-08T06:05:07;28.15;;;19.25;;
48951;SDS011;34758;42.148;24.744;2024-03-08T06:07:36;25.10;;;19.55;;
48951;SDS011;34758;42.148;24.744;2024-03-08T06:10:06;26.60;;;18.95;;
48951;SDS011;34758;42.148;24.744;2024-03-08T06:12:38;29.13;;;19.80;;
48951;SDS011;34758;42.148;24.744;2024-03-08T06:15:07;36.08;;;22.75;;
48951;SDS011;34758;42.148;24.744;2024-03-08T06:17:35;26.90;;;19.73;;
48951;SDS011;34758;42.148;24.744;2024-03-08T06:20:05;31.42;;;21.05;;
48951;SDS011;34758;42.148;24.744;2024-03-08T06:22:36;31.95;;;20.73;;
48951;SDS011;34758;42.148;24.744;2024-03-08T06:25:06;32.78;;;22.60;;
48951;SDS011;34758;42.148;24.744;2024-03-08T06:27:34;25.98;;;19.20;;
48951;SDS011;34758;42.148;24.744;2024-03-08T06:30:02;26.15;;;18.65;;
48951;SDS011;34758;42.148;24.744;2024-03-08T06:32:30;26.77;;;19.58;;
48951;SDS011;34758;42.148;24.744;2024-03-08T06:35:01;29.33;;;19.35;;
48951;SDS011;34758;42.148;24.744;2024-03-08T06:37:31;32.00;;;20.77;;
48951;SDS011;34758;42.148;24.744;2024-03-08T06:39:58;28.58;;;20.00;;
48951;SDS011;34758;42.148;24.744;2024-03-08T06:42:26;30.15;;;21.45;;
48951;SDS011;34758;42.148;24.744;2024-03-08T06:44:53;30.70;;;20.85;;
48951;SDS011;34758;42.148;24.744;2024-03-08T06:47:29;33.13;;;21.40;;
48951;SDS011;34758;42.148;24.744;2024-03-08T06:49:56;31.38;;;19.95;;
48951;SDS011;34758;42.148;24.744;2024-03-08T06:52:24;30.65;;;20.42;;
48951;SDS011;34758;42.148;24.744;2024-03-08T06:54:51;33.30;;;22.35;;
48951;SDS011;34758;42.148;24.744;2024-03-08T06:57:19;32.65;;;23.00;;
48951;SDS011;34758;42.148;24.744;2024-03-08T06:59:48;28.25;;;19.58;;
48951;SDS011;34758;42.148;24.744;2024-03-08T07:02:17;29.58;;;20.30;;
48951;SDS011;34758;42.148;24.744;2024-03-08T07:04:44;28.88;;;18.65;;
48951;SDS011;34758;42.148;24.744;2024-03-08T07:07:11;28.73;;;18.88;;
48951;SDS011;34758;42.148;24.744;2024-03-08T07:09:39;26.67;;;20.20;;
48951;SDS011;34758;42.148;24.744;2024-03-08T07:12:08;28.05;;;19.50;;
48951;SDS011;34758;42.148;24.744;2024-03-08T07:14:36;28.75;;;19.38;;
48951;SDS011;34758;42.148;24.744;2024-03-08T07:17:06;30.02;;;21.45;;
48951;SDS011;34758;42.148;24.744;2024-03-08T07:19:34;35.60;;;26.65;;
48951;SDS011;34758;42.148;24.744;2024-03-08T07:22:03;30.02;;;20.15;;
48951;SDS011;34758;42.148;24.744;2024-03-08T07:24:35;34.35;;;21.25;;
48951;SDS011;34758;42.148;24.744;2024-03-08T07:27:22;37.20;;;27.77;;
48951;SDS011;34758;42.148;24.744;2024-03-08T07:29:51;33.38;;;21.10;;
48951;SDS011;34758;42.148;24.744;2024-03-08T07:32:18;27.05;;;20.98;;
48951;SDS011;34758;42.148;24.744;2024-03-08T07:34:46;32.10;;;21.65;;
48951;SDS011;34758;42.148;24.744;2024-03-08T07:37:15;29.77;;;20.20;;
48951;SDS011;34758;42.148;24.744;2024-03-08T07:39:43;31.15;;;19.10;;
48951;SDS011;34758;42.148;24.744;2024-03-08T07:42:12;30.50;;;20.52;;
48951;SDS011;34758;42.148;24.744;2024-03-08T07:44:48;29.20;;;19.48;;
48951;SDS011;34758;42.148;24.744;2024-03-08T07:47:15;25.80;;;17.58;;
48951;SDS011;34758;42.148;24.744;2024-03-08T07:49:45;25.27;;;16.33;;
48951;SDS011;34758;42.148;24.744;2024-03-08T07:52:12;27.63;;;17.02;;
48951;SDS011;34758;42.148;24.744;2024-03-08T07:54:41;25.27;;;17.98;;
48951;SDS011;34758;42.148;24.744;2024-03-08T07:57:10;23.90;;;17.17;;
48951;SDS011;34758;42.148;24.744;2024-03-08T07:59:38;26.35;;;16.88;;
48951;SDS011;34758;42.148;24.744;2024-03-08T08:02:07;25.80;;;21.63;;
48951;SDS011;34758;42.148;24.744;2024-03-08T08:04:35;28.15;;;18.73;;
48951;SDS011;34758;42.148;24.744;2024-03-08T08:07:07;25.20;;;19.13;;
48951;SDS011;34758;42.148;24.744;2024-03-08T08:09:34;31.85;;;23.15;;
48951;SDS011;34758;42.148;24.744;2024-03-08T08:12:05;27.98;;;18.42;;
48951;SDS011;34758;42.148;24.744;2024-03-08T08:14:47;25.23;;;17.73;;
48951;SDS011;34758;42.148;24.744;2024-03-08T08:17:15;21.20;;;15.63;;
48951;SDS011;34758;42.148;24.744;2024-03-08T08:19:42;22.48;;;16.30;;
48951;SDS011;34758;42.148;24.744;2024-03-08T08:22:14;24.13;;;16.27;;
48951;SDS011;34758;42.148;24.744;2024-03-08T08:24:45;21.08;;;15.30;;
48951;SDS011;34758;42.148;24.744;2024-03-08T08:27:16;18.75;;;14.85;;
48951;SDS011;34758;42.148;24.744;2024-03-08T08:29:43;22.70;;;15.27;;
48951;SDS011;34758;42.148;24.744;2024-03-08T08:32:14;22.77;;;15.15;;
48951;SDS011;34758;42.148;24.744;2024-03-08T08:34:43;26.17;;;16.25;;
48951;SDS011;34758;42.148;24.744;2024-03-08T08:37:13;24.30;;;15.77;;
48951;SDS011;34758;42.148;24.744;2024-03-08T08:39:43;24.42;;;15.20;;
48951;SDS011;34758;42.148;24.744;2024-03-08T08:42:12;22.55;;;14.73;;
48951;SDS011;34758;42.148;24.744;2024-03-08T08:44:39;20.83;;;14.02;;
48951;SDS011;34758;42.148;24.744;2024-03-08T08:47:06;21.02;;;14.07;;
48951;SDS011;34758;42.148;24.744;2024-03-08T08:49:39;18.98;;;13.85;;
48951;SDS011;34758;42.148;24.744;2024-03-08T08:52:11;23.02;;;16.40;;
48951;SDS011;34758;42.148;24.744;2024-03-08T08:54:44;22.45;;;14.15;;
48951;SDS011;34758;42.148;24.744;2024-03-08T08:57:14;22.98;;;18.17;;
48951;SDS011;34758;42.148;24.744;2024-03-08T08:59:41;26.33;;;19.77;;
48951;SDS011;34758;42.148;24.744;2024-03-08T09:02:08;21.77;;;14.52;;
48951;SDS011;34758;42.148;24.744;2024-03-08T09:04:39;19.52;;;13.75;;
48951;SDS011;34758;42.148;24.744;2024-03-08T09:07:09;17.50;;;12.70;;
48951;SDS011;34758;42.148;24.744;2024-03-08T09:09:39;18.10;;;13.05;;
48951;SDS011;34758;42.148;24.744;2024-03-08T09:12:08;18.23;;;13.65;;
48951;SDS011;34758;42.148;24.744;2024-03-08T09:14:38;19.75;;;13.35;;
48951;SDS011;34758;42.148;24.744;2024-03-08T09:17:07;26.08;;;17.33;;
48951;SDS011;34758;42.148;24.744;2024-03-08T09:19:35;22.38;;;15.95;;
48951;SDS011;34758;42.148;24.744;2024-03-08T09:22:06;18.15;;;13.25;;
48951;SDS011;34758;42.148;24.744;2024-03-08T09:24:36;24.33;;;14.02;;
48951;SDS011;34758;42.148;24.744;2024-03-08T09:27:03;20.30;;;15.20;;
48951;SDS011;34758;42.148;24.744;2024-03-08T09:29:35;20.55;;;13.40;;
48951;SDS011;34758;42.148;24.744;2024-03-08T09:32:02;18.30;;;13.65;;
48951;SDS011;34758;42.148;24.744;2024-03-08T09:34:37;15.60;;;11.40;;
48951;SDS011;34758;42.148;24.744;2024-03-08T09:37:09;16.52;;;10.85;;
48951;SDS011;34758;42.148;24.744;2024-03-08T09:39:39;17.38;;;12.75;;
48951;SDS011;34758;42.148;24.744;2024-03-08T09:42:07;20.25;;;11.45;;
48951;SDS011;34758;42.148;24.744;2024-03-08T09:44:34;16.45;;;10.90;;
48951;SDS011;34758;42.148;24.744;2024-03-08T09:47:02;15.70;;;12.00;;
48951;SDS011;34758;42.148;24.744;2024-03-08T09:49:32;15.30;;;11.48;;
48951;SDS011;34758;42.148;24.744;2024-03-08T09:52:00;20.08;;;10.52;;
48951;SDS011;34758;42.148;24.744;2024-03-08T09:54:36;14.50;;;11.15;;
48951;SDS011;34758;42.148;24.744;2024-03-08T09:57:05;19.60;;;12.07;;
48951;SDS011;34758;42.148;24.744;2024-03-08T09:59:34;22.65;;;12.50;;
48951;SDS011;34758;42.148;24.744;2024-03-08T10:02:14;18.77;;;11.90;;
48951;SDS011;34758;42.148;24.744;2024-03-08T10:04:44;19.63;;;14.43;;
48951;SDS011;34758;42.148;24.744;2024-03-08T10:07:13;20.88;;;12.27;;
48951;SDS011;34758;42.148;24.744;2024-03-08T10:09:43;23.75;;;12.27;;
48951;SDS011;34758;42.148;24.744;2024-03-08T10:12:15;20.45;;;13.20;;
48951;SDS011;34758;42.148;24.744;2024-03-08T10:14:45;20.52;;;13.02;;
48951;SDS011;34758;42.148;24.744;2024-03-08T10:17:13;15.55;;;11.98;;
48951;SDS011;34758;42.148;24.744;2024-03-08T10:19:49;15.63;;;11.70;;
48951;SDS011;34758;42.148;24.744;2024-03-08T10:22:18;15.45;;;11.75;;
48951;SDS011;34758;42.148;24.744;2024-03-08T10:24:48;19.05;;;11.75;;
48951;SDS011;34758;42.148;24.744;2024-03-08T10:27:24;19.25;;;12.55;;
48951;SDS011;34758;42.148;24.744;2024-03-08T10:29:53;16.55;;;11.00;;
48951;SDS011;34758;42.148;24.744;2024-03-08T10:32:23;15.23;;;10.43;;
48951;SDS011;34758;42.148;24.744;2024-03-08T10:34:52;16.35;;;10.52;;
48951;SDS011;34758;42.148;24.744;2024-03-08T10:37:21;18.42;;;10.93;;
48951;SDS011;34758;42.148;24.744;2024-03-08T10:42:47;21.88;;;13.57;;
48951;SDS011;34758;42.148;24.744;2024-03-08T10:45:34;17.73;;;11.93;;
48951;SDS011;34758;42.148;24.744;2024-03-08T10:48:20;18.83;;;11.38;;
48951;SDS011;34758;42.148;24.744;2024-03-08T10:50:57;17.90;;;11.35;;
48951;SDS011;34758;42.148;24.744;2024-03-08T10:53:26;25.15;;;13.63;;
48951;SDS011;34758;42.148;24.744;2024-03-08T10:58:39;20.50;;;13.45;;
48951;SDS011;34758;42.148;24.744;2024-03-08T11:01:09;15.40;;;11.50;;
48951;SDS011;34758;42.148;24.744;2024-03-08T11:03:44;19.83;;;11.52;;
48951;SDS011;34758;42.148;24.744;2024-03-08T11:06:15;22.02;;;13.75;;
48951;SDS011;34758;42.148;24.744;2024-03-08T11:08:43;20.67;;;13.18;;
48951;SDS011;34758;42.148;24.744;2024-03-08T11:11:25;16.45;;;11.55;;
48951;SDS011;34758;42.148;24.744;2024-03-08T11:13:56;15.25;;;12.55;;
48951;SDS011;34758;42.148;24.744;2024-03-08T11:16:37;23.42;;;17.95;;
48951;SDS011;34758;42.148;24.744;2024-03-08T11:19:24;16.92;;;12.57;;
48951;SDS011;34758;42.148;24.744;2024-03-08T11:21:57;22.73;;;14.43;;
48951;SDS011;34758;42.148;24.744;2024-03-08T11:24:27;13.25;;;10.20;;
48951;SDS011;34758;42.148;24.744;2024-03-08T11:27:09;14.02;;;10.10;;
48951;SDS011;34758;42.148;24.744;2024-03-08T11:29:40;17.07;;;12.60;;
48951;SDS011;34758;42.148;24.744;2024-03-08T11:32:14;15.63;;;11.05;;
48951;SDS011;34758;42.148;24.744;2024-03-08T11:34:45;12.18;;;9.32;;
48951;SDS011;34758;42.148;24.744;2024-03-08T11:37:13;13.65;;;10.35;;
48951;SDS011;34758;42.148;24.744;2024-03-08T11:39:41;15.50;;;9.85;;
48951;SDS011;34758;42.148;24.744;2024-03-08T11:42:15;13.10;;;9.57;;
48951;SDS011;34758;42.148;24.744;2024-03-08T11:44:42;12.77;;;8.50;;
48951;SDS011;34758;42.148;24.744;2024-03-08T11:47:13;13.02;;;8.82;;
48951;SDS011;34758;42.148;24.744;2024-03-08T11:49:42;13.20;;;9.00;;
48951;SDS011;34758;42.148;24.744;2024-03-08T11:52:13;12.23;;;9.70;;
48951;SDS011;34758;42.148;24.744;2024-03-08T11:54:48;12.77;;;11.00;;
48951;SDS011;34758;42.148;24.744;2024-03-08T11:57:21;15.38;;;9.82;;
48951;SDS011;34758;42.148;24.744;2024-03-08T11:59:50;11.73;;;8.90;;
48951;SDS011;34758;42.148;24.744;2024-03-08T12:02:24;13.20;;;9.27;;
48951;SDS011;34758;42.148;24.744;2024-03-08T12:04:56;19.17;;;11.30;;
48951;SDS011;34758;42.148;24.744;2024-03-08T12:07:28;16.80;;;9.02;;
48951;SDS011;34758;42.148;24.744;2024-03-08T12:10:17;14.15;;;8.93;;
48951;SDS011;34758;42.148;24.744;2024-03-08T12:12:49;12.10;;;8.65;;
48951;SDS011;34758;42.148;24.744;2024-03-08T12:15:17;17.25;;;10.77;;
48951;SDS011;34758;42.148;24.744;2024-03-08T12:17:47;19.20;;;10.90;;
48951;SDS011;34758;42.148;24.744;2024-03-08T12:20:20;19.27;;;12.02;;
48951;SDS011;34758;42.148;24.744;2024-03-08T12:25:25;29.35;;;18.95;;
48951;SDS011;34758;42.148;24.744;2024-03-08T12:27:54;19.47;;;12.97;;
48951;SDS011;34758;42.148;24.744;2024-03-08T12:30:31;20.88;;;13.02;;
48951;SDS011;34758;42.148;24.744;2024-03-08T12:33:01;18.83;;;14.65;;
48951;SDS011;34758;42.148;24.744;2024-03-08T12:35:29;14.85;;;10.80;;
48951;SDS011;34758;42.148;24.744;2024-03-08T12:37:59;16.38;;;11.18;;
48951;SDS011;34758;42.148;24.744;2024-03-08T12:40:28;14.52;;;10.77;;
48951;SDS011;34758;42.148;24.744;2024-03-08T12:42:58;13.55;;;8.85;;
48951;SDS011;34758;42.148;24.744;2024-03-08T12:45:31;15.07;;;11.73;;
48951;SDS011;34758;42.148;24.744;2024-03-08T12:48:03;13.80;;;10.50;;
48951;SDS011;34758;42.148;24.744;2024-03-08T12:50:42;15.32;;;9.43;;
48951;SDS011;34758;42.148;24.744;2024-03-08T12:53:13;18.55;;;11.73;;
48951;SDS011;34758;42.148;24.744;2024-03-08T12:55:39;18.45;;;13.00;;
48951;SDS011;34758;42.148;24.744;2024-03-08T12:58:11;14.32;;;10.18;;
48951;SDS011;34758;42.148;24.744;2024-03-08T13:00:42;20.27;;;14.02;;
48951;SDS011;34758;42.148;24.744;2024-03-08T13:03:10;19.30;;;15.23;;
48951;SDS011;34758;42.148;24.744;2024-03-08T13:05:40;17.33;;;13.50;;
48951;SDS011;34758;42.148;24.744;2024-03-08T13:08:12;17.50;;;11.07;;
48951;SDS011;34758;42.148;24.744;2024-03-08T13:10:44;11.13;;;8.73;;
48951;SDS011;34758;42.148;24.744;2024-03-08T13:13:21;13.55;;;8.73;;
48951;SDS011;34758;42.148;24.744;2024-03-08T13:15:50;11.13;;;7.75;;
48951;SDS011;34758;42.148;24.744;2024-03-08T13:18:18;9.93;;;8.00;;
48951;SDS011;34758;42.148;24.744;2024-03-08T13:20:47;10.70;;;8.43;;
48951;SDS011;34758;42.148;24.744;2024-03-08T13:23:17;8.57;;;7.47;;
48951;SDS011;34758;42.148;24.744;2024-03-08T13:25:45;17.33;;;14.63;;
48951;SDS011;34758;42.148;24.744;2024-03-08T13:28:13;12.25;;;8.85;;
48951;SDS011;34758;42.148;24.744;2024-03-08T13:30:43;13.40;;;9.35;;
48951;SDS011;34758;42.148;24.744;2024-03-08T13:33:12;11.63;;;8.13;;
48951;SDS011;34758;42.148;24.744;2024-03-08T13:35:40;9.35;;;7.07;;
48951;SDS011;34758;42.148;24.744;2024-03-08T13:38:07;10.82;;;8.38;;
48951;SDS011;34758;42.148;24.744;2024-03-08T13:40:41;9.07;;;7.22;;
48951;SDS011;34758;42.148;24.744;2024-03-08T13:43:09;9.07;;;5.22;;
48951;SDS011;34758;42.148;24.744;2024-03-08T13:45:41;6.53;;;5.28;;
48951;SDS011;34758;42.148;24.744;2024-03-08T13:48:13;10.90;;;6.55;;
48951;SDS011;34758;42.148;24.744;2024-03-08T13:50:43;9.57;;;8.10;;
48951;SDS011;34758;42.148;24.744;2024-03-08T13:53:11;11.30;;;7.90;;
48951;SDS011;34758;42.148;24.744;2024-03-08T13:55:39;14.38;;;9.73;;
48951;SDS011;34758;42.148;24.744;2024-03-08T13:58:08;11.27;;;7.28;;
48951;SDS011;34758;42.148;24.744;2024-03-08T14:00:39;11.37;;;6.40;;
48951;SDS011;34758;42.148;24.744;2024-03-08T14:03:13;11.18;;;7.40;;
48951;SDS011;34758;42.148;24.744;2024-03-08T14:05:40;12.93;;;7.65;;
48951;SDS011;34758;42.148;24.744;2024-03-08T14:08:13;9.75;;;8.27;;
48951;SDS011;34758;42.148;24.744;2024-03-08T14:10:42;10.13;;;7.50;;
48951;SDS011;34758;42.148;24.744;2024-03-08T14:13:14;8.95;;;6.43;;
48951;SDS011;34758;42.148;24.744;2024-03-08T14:15:46;9.30;;;7.63;;
48951;SDS011;34758;42.148;24.744;2024-03-08T14:18:19;10.98;;;7.13;;
48951;SDS011;34758;42.148;24.744;2024-03-08T14:20:46;9.63;;;7.32;;
48951;SDS011;34758;42.148;24.744;2024-03-08T14:23:14;10.38;;;7.50;;
48951;SDS011;34758;42.148;24.744;2024-03-08T14:25:45;9.73;;;6.28;;
48951;SDS011;34758;42.148;24.744;2024-03-08T14:28:14;8.13;;;6.78;;
48951;SDS011;34758;42.148;24.744;2024-03-08T14:30:46;11.00;;;7.88;;
48951;SDS011;34758;42.148;24.744;2024-03-08T14:33:16;7.97;;;6.38;;
48951;SDS011;34758;42.148;24.744;2024-03-08T14:35:55;18.88;;;12.63;;